sensor_id;sensor_type;location;lat;lon;timestamp;P1;durP1;ratioP1;P2;durP2;ratioP2
11220;SDS011;8517;53.546;10.104;2023-03-04T00:02:17;8.20;;;2.83;;
11220;SDS011;8517;53.546;10.104;2023-03-04T00:04:44;9.57;;;2.87;;
11220;SDS011;8517;53.546;10.104;2023-03-04T00:07:11;10.63;;;2.83;;
11220;SDS011;8517;53.546;10.104;2023-03-04T00:09:40;11.13;;;2.80;;
11220;SDS011;8517;53.546;10.104;2023-03-04T00:12:09;10.83;;;2.93;;
11220;SDS011;8517;53.546;10.104;2023-03-04T00:14:35;9.80;;;2.80;;
11220;SDS011;8517;53.546;10.104;2023-03-04T00:17:04;9.00;;;2.70;;
11220;SDS011;8517;53.546;10.104;2023-03-04T00:19:31;7.93;;;2.70;;
11220;SDS011;8517;53.546;10.104;2023-03-04T00:21:59;9.07;;;2.60;;
11220;SDS011;8517;53.546;10.104;2023-03-04T00:24:26;11.43;;;3.00;;
11220;SDS011;8517;53.546;10.104;2023-03-04T00:26:52;10.60;;;3.17;;
11220;SDS011;8517;53.546;10.104;2023-03-04T00:29:19;6.80;;;2.33;;
11220;SDS011;8517;53.546;10.104;2023-03-04T00:31:46;11.13;;;2.73;;
11220;SDS011;8517;53.546;10.104;2023-03-04T00:34:14;8.93;;;2.33;;
11220;SDS011;8517;53.546;10.104;2023-03-04T00:36:41;7.20;;;2.53;;
11220;SDS011;8517;53.546;10.104;2023-03-04T00:39:08;8.43;;;2.83;;
11220;SDS011;8517;53.546;10.104;2023-03-04T00:41:35;8.57;;;2.83;;
11220;SDS011;8517;53.546;10.104;2023-03-04T00:44:03;10.50;;;2.87;;
11220;SDS011;8517;53.546;10.104;2023-03-04T00:46:30;8.17;;;2.67;;
11220;SDS011;8517;53.546;10.104;2023-03-04T00:48:57;8.70;;;2.33;;
11220;SDS011;8517;53.546;10.104;2023-03-04T00:51:25;10.30;;;2.20;;
11220;SDS011;8517;53.546;10.104;2023-03-04T00:53:52;10.83;;;2.37;;
11220;SDS011;8517;53.546;10.104;2023-03-04T00:56:18;8.40;;;2.13;;
11220;SDS011;8517;53.546;10.104;2023-03-04T00:58:45;6.43;;;1.97;;
11220;SDS011;8517;53.546;10.104;2023-03-04T01:01:12;8.43;;;2.07;;
11220;SDS011;8517;53.546;10.104;2023-03-04T01:03:39;9.17;;;2.60;;
11220;SDS011;8517;53.546;10.104;2023-03-04T01:06:06;7.87;;;2.40;;
11220;SDS011;8517;53.546;10.104;2023-03-04T01:08:34;7.90;;;2.03;;
11220;SDS011;8517;53.546;10.104;2023-03-04T01:11:01;4.97;;;1.90;;
11220;SDS011;8517;53.546;10.104;2023-03-04T01:13:28;8.87;;;2.13;;
11220;SDS011;8517;53.546;10.104;2023-03-04T01:15:55;7.83;;;2.10;;
11220;SDS011;8517;53.546;10.104;2023-03-04T01:18:22;5.00;;;1.77;;
11220;SDS011;8517;53.546;10.104;2023-03-04T01:20:49;5.53;;;1.80;;
11220;SDS011;8517;53.546;10.104;2023-03-04T01:23:16;5.63;;;1.60;;
11220;SDS011;8517;53.546;10.104;2023-03-04T01:25:44;9.40;;;2.23;;
11220;SDS011;8517;53.546;10.104;2023-03-04T01:28:11;6.43;;;1.47;;
11220;SDS011;8517;53.546;10.104;2023-03-04T01:30:38;9.40;;;1.90;;
11220;SDS011;8517;53.546;10.104;2023-03-04T01:33:04;7.27;;;1.60;;
11220;SDS011;8517;53.546;10.104;2023-03-04T01:35:31;7.73;;;1.70;;
11220;SDS011;8517;53.546;10.104;2023-03-04T01:37:58;7.77;;;1.57;;
11220;SDS011;8517;53.546;10.104;2023-03-04T01:40:25;6.57;;;1.60;;
11220;SDS011;8517;53.546;10.104;2023-03-04T01:42:53;7.10;;;1.40;;
11220;SDS011;8517;53.546;10.104;2023-03-04T01:45:20;7.33;;;1.50;;
11220;SDS011;8517;53.546;10.104;2023-03-04T01:47:47;8.90;;;2.17;;
11220;SDS011;8517;53.546;10.104;2023-03-04T01:50:17;6.10;;;1.50;;
11220;SDS011;8517;53.546;10.104;2023-03-04T01:52:47;10.53;;;1.90;;
11220;SDS011;8517;53.546;10.104;2023-03-04T01:55:14;3.60;;;1.30;;
11220;SDS011;8517;53.546;10.104;2023-03-04T01:57:43;5.60;;;1.40;;
11220;SDS011;8517;53.546;10.104;2023-03-04T02:00:24;6.10;;;2.07;;
11220;SDS011;8517;53.546;10.104;2023-03-04T02:02:56;6.03;;;1.30;;
11220;SDS011;8517;53.546;10.104;2023-03-04T02:05:24;8.53;;;1.70;;
11220;SDS011;8517;53.546;10.104;2023-03-04T02:07:52;8.83;;;1.60;;
11220;SDS011;8517;53.546;10.104;2023-03-04T02:10:20;7.70;;;1.60;;
11220;SDS011;8517;53.546;10.104;2023-03-04T02:13:06;9.87;;;1.57;;
11220;SDS011;8517;53.546;10.104;2023-03-04T02:15:34;5.90;;;1.53;;
11220;SDS011;8517;53.546;10.104;2023-03-04T02:18:01;6.70;;;1.50;;
11220;SDS011;8517;53.546;10.104;2023-03-04T02:20:34;5.23;;;1.37;;
11220;SDS011;8517;53.546;10.104;2023-03-04T02:23:09;7.37;;;1.60;;
11220;SDS011;8517;53.546;10.104;2023-03-04T02:25:42;6.20;;;1.60;;
11220;SDS011;8517;53.546;10.104;2023-03-04T02:28:13;4.57;;;1.47;;
11220;SDS011;8517;53.546;10.104;2023-03-04T02:30:40;6.30;;;1.70;;
11220;SDS011;8517;53.546;10.104;2023-03-04T02:33:09;6.27;;;1.67;;
11220;SDS011;8517;53.546;10.104;2023-03-04T02:35:40;11.27;;;2.00;;
11220;SDS011;8517;53.546;10.104;2023-03-04T02:38:08;7.10;;;1.83;;
11220;SDS011;8517;53.546;10.104;2023-03-04T02:40:35;7.97;;;1.77;;
11220;SDS011;8517;53.546;10.104;2023-03-04T02:43:05;7.80;;;1.77;;
11220;SDS011;8517;53.546;10.104;2023-03-04T02:45:37;5.50;;;1.40;;
11220;SDS011;8517;53.546;10.104;2023-03-04T02:48:06;4.77;;;1.50;;
11220;SDS011;8517;53.546;10.104;2023-03-04T02:50:34;11.80;;;1.73;;
11220;SDS011;8517;53.546;10.104;2023-03-04T02:53:03;6.93;;;1.70;;
11220;SDS011;8517;53.546;10.104;2023-03-04T02:55:30;11.30;;;1.93;;
11220;SDS011;8517;53.546;10.104;2023-03-04T02:57:58;5.23;;;1.90;;
11220;SDS011;8517;53.546;10.104;2023-03-04T03:00:25;8.93;;;1.90;;
11220;SDS011;8517;53.546;10.104;2023-03-04T03:02:53;8.57;;;1.87;;
11220;SDS011;8517;53.546;10.104;2023-03-04T03:05:21;10.70;;;2.00;;
11220;SDS011;8517;53.546;10.104;2023-03-04T03:07:50;9.50;;;1.80;;
11220;SDS011;8517;53.546;10.104;2023-03-04T03:10:16;8.40;;;1.70;;
11220;SDS011;8517;53.546;10.104;2023-03-04T03:12:44;6.90;;;1.80;;
11220;SDS011;8517;53.546;10.104;2023-03-04T03:15:11;6.80;;;2.00;;
11220;SDS011;8517;53.546;10.104;2023-03-04T03:17:38;7.07;;;1.90;;
11220;SDS011;8517;53.546;10.104;2023-03-04T03:20:07;6.50;;;1.90;;
11220;SDS011;8517;53.546;10.104;2023-03-04T03:22:36;8.13;;;2.10;;
11220;SDS011;8517;53.546;10.104;2023-03-04T03:25:03;5.83;;;1.60;;
11220;SDS011;8517;53.546;10.104;2023-03-04T03:27:31;7.07;;;1.97;;
11220;SDS011;8517;53.546;10.104;2023-03-04T03:29:58;5.47;;;1.73;;
11220;SDS011;8517;53.546;10.104;2023-03-04T03:32:25;6.00;;;1.47;;
11220;SDS011;8517;53.546;10.104;2023-03-04T03:34:52;7.47;;;2.03;;
11220;SDS011;8517;53.546;10.104;2023-03-04T03:37:20;6.73;;;1.80;;
11220;SDS011;8517;53.546;10.104;2023-03-04T03:39:47;10.53;;;2.30;;
11220;SDS011;8517;53.546;10.104;2023-03-04T03:42:13;10.77;;;2.37;;
11220;SDS011;8517;53.546;10.104;2023-03-04T03:44:40;10.97;;;2.40;;
11220;SDS011;8517;53.546;10.104;2023-03-04T03:47:07;9.13;;;2.30;;
11220;SDS011;8517;53.546;10.104;2023-03-04T03:49:34;4.50;;;1.53;;
11220;SDS011;8517;53.546;10.104;2023-03-04T03:52:00;9.20;;;2.10;;
11220;SDS011;8517;53.546;10.104;2023-03-04T03:54:29;9.33;;;2.07;;
11220;SDS011;8517;53.546;10.104;2023-03-04T03:56:55;5.47;;;1.43;;
11220;SDS011;8517;53.546;10.104;2023-03-04T03:59:22;10.47;;;1.87;;
11220;SDS011;8517;53.546;10.104;2023-03-04T04:01:49;6.37;;;1.67;;
11220;SDS011;8517;53.546;10.104;2023-03-04T04:04:16;8.43;;;1.40;;
11220;SDS011;8517;53.546;10.104;2023-03-04T04:06:42;5.53;;;1.90;;
11220;SDS011;8517;53.546;10.104;2023-03-04T04:09:09;9.93;;;2.10;;
11220;SDS011;8517;53.546;10.104;2023-03-04T04:11:37;8.37;;;1.70;;
11220;SDS011;8517;53.546;10.104;2023-03-04T04:14:04;7.83;;;1.80;;
11220;SDS011;8517;53.546;10.104;2023-03-04T04:16:31;11.07;;;1.97;;
11220;SDS011;8517;53.546;10.104;2023-03-04T04:18:58;6.60;;;1.70;;
11220;SDS011;8517;53.546;10.104;2023-03-04T04:21:25;8.97;;;2.10;;
11220;SDS011;8517;53.546;10.104;2023-03-04T04:23:51;6.33;;;1.47;;
11220;SDS011;8517;53.546;10.104;2023-03-04T04:26:18;6.50;;;1.57;;
11220;SDS011;8517;53.546;10.104;2023-03-04T04:28:46;7.73;;;1.70;;
11220;SDS011;8517;53.546;10.104;2023-03-04T04:31:13;6.63;;;1.93;;
11220;SDS011;8517;53.546;10.104;2023-03-04T04:33:40;7.17;;;1.80;;
11220;SDS011;8517;53.546;10.104;2023-03-04T04:36:08;6.33;;;1.93;;
11220;SDS011;8517;53.546;10.104;2023-03-04T04:38:38;8.17;;;2.07;;
11220;SDS011;8517;53.546;10.104;2023-03-04T04:41:04;6.97;;;2.00;;
11220;SDS011;8517;53.546;10.104;2023-03-04T04:43:35;9.30;;;2.33;;
11220;SDS011;8517;53.546;10.104;2023-03-04T04:46:03;8.57;;;2.07;;
11220;SDS011;8517;53.546;10.104;2023-03-04T04:48:30;7.30;;;1.87;;
11220;SDS011;8517;53.546;10.104;2023-03-04T04:50:57;6.07;;;2.20;;
11220;SDS011;8517;53.546;10.104;2023-03-04T04:53:24;8.80;;;2.20;;
11220;SDS011;8517;53.546;10.104;2023-03-04T04:55:51;6.43;;;1.70;;
11220;SDS011;8517;53.546;10.104;2023-03-04T04:58:17;8.07;;;1.97;;
11220;SDS011;8517;53.546;10.104;2023-03-04T05:00:44;9.93;;;2.23;;
11220;SDS011;8517;53.546;10.104;2023-03-04T05:03:12;8.93;;;2.17;;
11220;SDS011;8517;53.546;10.104;2023-03-04T05:05:39;7.70;;;1.97;;
11220;SDS011;8517;53.546;10.104;2023-03-04T05:08:06;9.40;;;2.50;;
11220;SDS011;8517;53.546;10.104;2023-03-04T05:10:33;8.70;;;1.80;;
11220;SDS011;8517;53.546;10.104;2023-03-04T05:12:59;8.23;;;2.57;;
11220;SDS011;8517;53.546;10.104;2023-03-04T05:15:26;7.43;;;2.10;;
11220;SDS011;8517;53.546;10.104;2023-03-04T05:17:53;8.83;;;2.10;;
11220;SDS011;8517;53.546;10.104;2023-03-04T05:20:21;7.40;;;2.10;;
11220;SDS011;8517;53.546;10.104;2023-03-04T05:22:48;8.50;;;2.40;;
11220;SDS011;8517;53.546;10.104;2023-03-04T05:25:15;9.07;;;2.33;;
11220;SDS011;8517;53.546;10.104;2023-03-04T05:27:42;7.50;;;2.20;;
11220;SDS011;8517;53.546;10.104;2023-03-04T05:30:09;9.37;;;2.23;;
11220;SDS011;8517;53.546;10.104;2023-03-04T05:32:37;7.97;;;2.37;;
11220;SDS011;8517;53.546;10.104;2023-03-04T05:35:04;8.80;;;1.97;;
11220;SDS011;8517;53.546;10.104;2023-03-04T05:37:33;9.23;;;2.00;;
11220;SDS011;8517;53.546;10.104;2023-03-04T05:39:59;6.10;;;1.90;;
11220;SDS011;8517;53.546;10.104;2023-03-04T05:42:26;7.07;;;1.90;;
11220;SDS011;8517;53.546;10.104;2023-03-04T05:44:53;5.70;;;1.90;;
11220;SDS011;8517;53.546;10.104;2023-03-04T05:47:20;9.23;;;2.40;;
11220;SDS011;8517;53.546;10.104;2023-03-04T05:49:46;7.60;;;1.90;;
11220;SDS011;8517;53.546;10.104;2023-03-04T05:52:13;7.63;;;2.23;;
11220;SDS011;8517;53.546;10.104;2023-03-04T05:54:41;10.70;;;2.33;;
11220;SDS011;8517;53.546;10.104;2023-03-04T05:57:08;10.30;;;2.23;;
11220;SDS011;8517;53.546;10.104;2023-03-04T05:59:35;11.07;;;2.30;;
11220;SDS011;8517;53.546;10.104;2023-03-04T06:02:02;10.90;;;2.43;;
11220;SDS011;8517;53.546;10.104;2023-03-04T06:04:28;15.70;;;2.97;;
11220;SDS011;8517;53.546;10.104;2023-03-04T06:06:55;12.93;;;2.87;;
11220;SDS011;8517;53.546;10.104;2023-03-04T06:09:22;9.27;;;2.70;;
11220;SDS011;8517;53.546;10.104;2023-03-04T06:11:50;16.93;;;3.30;;
11220;SDS011;8517;53.546;10.104;2023-03-04T06:14:17;11.13;;;3.97;;
11220;SDS011;8517;53.546;10.104;2023-03-04T06:16:44;12.27;;;3.00;;
11220;SDS011;8517;53.546;10.104;2023-03-04T06:19:11;31.97;;;18.20;;
11220;SDS011;8517;53.546;10.104;2023-03-04T06:21:37;17.17;;;4.43;;
11220;SDS011;8517;53.546;10.104;2023-03-04T06:24:04;18.10;;;5.80;;
11220;SDS011;8517;53.546;10.104;2023-03-04T06:26:31;17.50;;;3.77;;
11220;SDS011;8517;53.546;10.104;2023-03-04T06:28:59;20.10;;;4.07;;
11220;SDS011;8517;53.546;10.104;2023-03-04T06:31:26;16.50;;;3.93;;
11220;SDS011;8517;53.546;10.104;2023-03-04T06:33:53;17.87;;;3.70;;
11220;SDS011;8517;53.546;10.104;2023-03-04T06:36:20;20.43;;;4.27;;
11220;SDS011;8517;53.546;10.104;2023-03-04T06:38:47;17.33;;;3.30;;
11220;SDS011;8517;53.546;10.104;2023-03-04T06:41:13;12.37;;;3.23;;
11220;SDS011;8517;53.546;10.104;2023-03-04T06:43:40;17.33;;;3.77;;
11220;SDS011;8517;53.546;10.104;2023-03-04T06:46:09;15.70;;;3.20;;
11220;SDS011;8517;53.546;10.104;2023-03-04T06:48:36;19.57;;;5.83;;
11220;SDS011;8517;53.546;10.104;2023-03-04T06:51:06;14.53;;;4.23;;
11220;SDS011;8517;53.546;10.104;2023-03-04T06:53:34;15.97;;;3.37;;
11220;SDS011;8517;53.546;10.104;2023-03-04T06:56:02;12.73;;;3.27;;
11220;SDS011;8517;53.546;10.104;2023-03-04T06:58:29;13.57;;;3.30;;
11220;SDS011;8517;53.546;10.104;2023-03-04T07:00:56;16.43;;;3.27;;
11220;SDS011;8517;53.546;10.104;2023-03-04T07:03:24;13.57;;;2.70;;
11220;SDS011;8517;53.546;10.104;2023-03-04T07:05:51;11.80;;;2.70;;
11220;SDS011;8517;53.546;10.104;2023-03-04T07:08:18;11.50;;;2.27;;
11220;SDS011;8517;53.546;10.104;2023-03-04T07:10:45;11.63;;;3.17;;
11220;SDS011;8517;53.546;10.104;2023-03-04T07:13:11;7.37;;;2.03;;
11220;SDS011;8517;53.546;10.104;2023-03-04T07:15:38;16.50;;;2.70;;
11220;SDS011;8517;53.546;10.104;2023-03-04T07:18:05;13.73;;;2.93;;
11220;SDS011;8517;53.546;10.104;2023-03-04T07:20:33;10.87;;;2.80;;
11220;SDS011;8517;53.546;10.104;2023-03-04T07:23:03;14.37;;;2.70;;
11220;SDS011;8517;53.546;10.104;2023-03-04T07:25:31;10.57;;;2.60;;
11220;SDS011;8517;53.546;10.104;2023-03-04T07:27:57;9.97;;;2.97;;
11220;SDS011;8517;53.546;10.104;2023-03-04T07:30:24;8.63;;;2.47;;
11220;SDS011;8517;53.546;10.104;2023-03-04T07:32:54;10.73;;;2.50;;
11220;SDS011;8517;53.546;10.104;2023-03-04T07:35:22;13.17;;;2.40;;
11220;SDS011;8517;53.546;10.104;2023-03-04T07:37:50;11.33;;;2.07;;
11220;SDS011;8517;53.546;10.104;2023-03-04T07:40:17;13.87;;;2.77;;
11220;SDS011;8517;53.546;10.104;2023-03-04T07:42:48;28.00;;;14.23;;
11220;SDS011;8517;53.546;10.104;2023-03-04T07:45:15;13.93;;;3.93;;
11220;SDS011;8517;53.546;10.104;2023-03-04T07:47:42;10.03;;;2.63;;
11220;SDS011;8517;53.546;10.104;2023-03-04T07:50:09;15.77;;;3.10;;
11220;SDS011;8517;53.546;10.104;2023-03-04T07:52:37;10.23;;;2.70;;
11220;SDS011;8517;53.546;10.104;2023-03-04T07:55:06;12.50;;;2.20;;
11220;SDS011;8517;53.546;10.104;2023-03-04T07:57:34;11.87;;;2.90;;
11220;SDS011;8517;53.546;10.104;2023-03-04T08:00:00;12.80;;;2.73;;
11220;SDS011;8517;53.546;10.104;2023-03-04T08:02:27;14.77;;;3.27;;
11220;SDS011;8517;53.546;10.104;2023-03-04T08:04:54;17.60;;;3.33;;
11220;SDS011;8517;53.546;10.104;2023-03-04T08:07:21;11.60;;;3.07;;
11220;SDS011;8517;53.546;10.104;2023-03-04T08:09:48;16.40;;;3.33;;
11220;SDS011;8517;53.546;10.104;2023-03-04T08:12:17;19.97;;;3.77;;
11220;SDS011;8517;53.546;10.104;2023-03-04T08:14:44;15.50;;;4.00;;
11220;SDS011;8517;53.546;10.104;2023-03-04T08:17:10;18.10;;;4.00;;
11220;SDS011;8517;53.546;10.104;2023-03-04T08:19:38;21.57;;;4.00;;
11220;SDS011;8517;53.546;10.104;2023-03-04T08:22:05;15.50;;;3.50;;
11220;SDS011;8517;53.546;10.104;2023-03-04T08:24:32;12.03;;;3.20;;
11220;SDS011;8517;53.546;10.104;2023-03-04T08:26:59;12.70;;;3.00;;
11220;SDS011;8517;53.546;10.104;2023-03-04T08:29:27;20.27;;;3.67;;
11220;SDS011;8517;53.546;10.104;2023-03-04T08:31:54;21.27;;;4.13;;
11220;SDS011;8517;53.546;10.104;2023-03-04T08:34:22;11.10;;;2.93;;
11220;SDS011;8517;53.546;10.104;2023-03-04T08:36:53;13.90;;;3.50;;
11220;SDS011;8517;53.546;10.104;2023-03-04T08:39:19;15.77;;;3.83;;
11220;SDS011;8517;53.546;10.104;2023-03-04T08:42:04;14.80;;;3.37;;
11220;SDS011;8517;53.546;10.104;2023-03-04T08:44:50;13.83;;;3.27;;
11220;SDS011;8517;53.546;10.104;2023-03-04T08:47:17;19.17;;;4.10;;
11220;SDS011;8517;53.546;10.104;2023-03-04T08:49:44;16.27;;;3.73;;
11220;SDS011;8517;53.546;10.104;2023-03-04T08:52:15;15.43;;;3.63;;
11220;SDS011;8517;53.546;10.104;2023-03-04T08:54:44;17.83;;;3.80;;
11220;SDS011;8517;53.546;10.104;2023-03-04T08:57:14;16.07;;;3.33;;
11220;SDS011;8517;53.546;10.104;2023-03-04T08:59:40;13.97;;;3.50;;
11220;SDS011;8517;53.546;10.104;2023-03-04T09:02:09;19.67;;;4.57;;
11220;SDS011;8517;53.546;10.104;2023-03-04T09:04:36;16.17;;;3.93;;
11220;SDS011;8517;53.546;10.104;2023-03-04T09:07:05;52.60;;;28.33;;
11220;SDS011;8517;53.546;10.104;2023-03-04T09:09:33;21.67;;;5.37;;
11220;SDS011;8517;53.546;10.104;2023-03-04T09:11:59;21.87;;;4.93;;
11220;SDS011;8517;53.546;10.104;2023-03-04T09:14:26;20.40;;;4.40;;
11220;SDS011;8517;53.546;10.104;2023-03-04T09:16:53;18.10;;;4.03;;
11220;SDS011;8517;53.546;10.104;2023-03-04T09:19:25;16.50;;;3.70;;
11220;SDS011;8517;53.546;10.104;2023-03-04T09:22:00;14.43;;;4.03;;
11220;SDS011;8517;53.546;10.104;2023-03-04T09:24:52;13.20;;;3.53;;
11220;SDS011;8517;53.546;10.104;2023-03-04T09:27:38;17.00;;;3.70;;
11220;SDS011;8517;53.546;10.104;2023-03-04T09:30:06;19.90;;;4.10;;
11220;SDS011;8517;53.546;10.104;2023-03-04T09:32:33;14.13;;;3.80;;
11220;SDS011;8517;53.546;10.104;2023-03-04T09:35:02;14.27;;;3.57;;
11220;SDS011;8517;53.546;10.104;2023-03-04T09:37:29;24.10;;;4.47;;
11220;SDS011;8517;53.546;10.104;2023-03-04T09:39:56;15.40;;;3.87;;
11220;SDS011;8517;53.546;10.104;2023-03-04T09:42:24;16.57;;;3.40;;
11220;SDS011;8517;53.546;10.104;2023-03-04T09:44:55;29.57;;;10.97;;
11220;SDS011;8517;53.546;10.104;2023-03-04T09:47:23;16.20;;;5.13;;
11220;SDS011;8517;53.546;10.104;2023-03-04T09:49:52;21.07;;;4.27;;
11220;SDS011;8517;53.546;10.104;2023-03-04T09:52:27;19.53;;;3.83;;
11220;SDS011;8517;53.546;10.104;2023-03-04T09:55:05;12.73;;;3.53;;
11220;SDS011;8517;53.546;10.104;2023-03-04T09:57:45;14.10;;;3.90;;
11220;SDS011;8517;53.546;10.104;2023-03-04T10:00:16;12.87;;;3.83;;
11220;SDS011;8517;53.546;10.104;2023-03-04T10:02:49;16.73;;;3.30;;
11220;SDS011;8517;53.546;10.104;2023-03-04T10:05:30;13.70;;;3.80;;
11220;SDS011;8517;53.546;10.104;2023-03-04T10:08:04;18.93;;;4.40;;
11220;SDS011;8517;53.546;10.104;2023-03-04T10:10:41;15.73;;;3.33;;
11220;SDS011;8517;53.546;10.104;2023-03-04T10:13:13;14.40;;;3.77;;
11220;SDS011;8517;53.546;10.104;2023-03-04T10:15:44;14.60;;;3.20;;
11220;SDS011;8517;53.546;10.104;2023-03-04T10:18:16;19.23;;;3.70;;
11220;SDS011;8517;53.546;10.104;2023-03-04T10:20:48;15.40;;;3.30;;
11220;SDS011;8517;53.546;10.104;2023-03-04T10:23:20;14.47;;;3.37;;
11220;SDS011;8517;53.546;10.104;2023-03-04T10:25:50;12.07;;;3.20;;
11220;SDS011;8517;53.546;10.104;2023-03-04T10:28:19;16.47;;;3.97;;
11220;SDS011;8517;53.546;10.104;2023-03-04T10:30:50;18.00;;;3.53;;
11220;SDS011;8517;53.546;10.104;2023-03-04T10:33:24;14.93;;;3.60;;
11220;SDS011;8517;53.546;10.104;2023-03-04T10:35:52;17.40;;;3.30;;
11220;SDS011;8517;53.546;10.104;2023-03-04T10:38:27;14.90;;;3.30;;
11220;SDS011;8517;53.546;10.104;2023-03-04T10:40:56;11.83;;;3.77;;
11220;SDS011;8517;53.546;10.104;2023-03-04T10:43:23;13.33;;;3.50;;
11220;SDS011;8517;53.546;10.104;2023-03-04T10:45:53;15.37;;;4.17;;
11220;SDS011;8517;53.546;10.104;2023-03-04T10:48:22;25.23;;;8.83;;
11220;SDS011;8517;53.546;10.104;2023-03-04T10:50:52;17.77;;;4.47;;
11220;SDS011;8517;53.546;10.104;2023-03-04T10:53:30;19.43;;;4.63;;
11220;SDS011;8517;53.546;10.104;2023-03-04T10:56:02;16.27;;;3.73;;
11220;SDS011;8517;53.546;10.104;2023-03-04T10:58:57;20.27;;;4.87;;
11220;SDS011;8517;53.546;10.104;2023-03-04T11:02:16;14.93;;;4.30;;
11220;SDS011;8517;53.546;10.104;2023-03-04T11:04:54;18.50;;;4.23;;
11220;SDS011;8517;53.546;10.104;2023-03-04T11:07:22;15.33;;;4.17;;
11220;SDS011;8517;53.546;10.104;2023-03-04T11:09:52;18.63;;;4.50;;
11220;SDS011;8517;53.546;10.104;2023-03-04T11:12:20;13.83;;;3.67;;
11220;SDS011;8517;53.546;10.104;2023-03-04T11:14:56;15.13;;;4.00;;
11220;SDS011;8517;53.546;10.104;2023-03-04T11:17:24;16.97;;;4.03;;
11220;SDS011;8517;53.546;10.104;2023-03-04T11:19:54;16.13;;;3.93;;
11220;SDS011;8517;53.546;10.104;2023-03-04T11:22:24;17.93;;;3.73;;
11220;SDS011;8517;53.546;10.104;2023-03-04T11:24:59;11.67;;;3.33;;
11220;SDS011;8517;53.546;10.104;2023-03-04T11:27:35;15.03;;;4.20;;
11220;SDS011;8517;53.546;10.104;2023-03-04T11:30:18;17.90;;;3.80;;
11220;SDS011;8517;53.546;10.104;2023-03-04T11:32:59;11.97;;;3.47;;
11220;SDS011;8517;53.546;10.104;2023-03-04T11:35:37;16.13;;;3.77;;
11220;SDS011;8517;53.546;10.104;2023-03-04T11:38:11;13.50;;;3.57;;
11220;SDS011;8517;53.546;10.104;2023-03-04T11:40:45;12.20;;;3.33;;
11220;SDS011;8517;53.546;10.104;2023-03-04T11:43:18;13.50;;;3.40;;
11220;SDS011;8517;53.546;10.104;2023-03-04T11:48:44;15.70;;;4.50;;
11220;SDS011;8517;53.546;10.104;2023-03-04T11:51:19;12.63;;;4.13;;
11220;SDS011;8517;53.546;10.104;2023-03-04T11:53:53;14.33;;;3.27;;
11220;SDS011;8517;53.546;10.104;2023-03-04T11:59:33;16.90;;;3.70;;
11220;SDS011;8517;53.546;10.104;2023-03-04T12:02:16;12.53;;;4.23;;
11220;SDS011;8517;53.546;10.104;2023-03-04T12:08:02;12.27;;;4.20;;
11220;SDS011;8517;53.546;10.104;2023-03-04T12:11:00;13.33;;;3.53;;
11220;SDS011;8517;53.546;10.104;2023-03-04T12:16:45;13.63;;;4.20;;
11220;SDS011;8517;53.546;10.104;2023-03-04T12:19:43;12.47;;;3.60;;
11220;SDS011;8517;53.546;10.104;2023-03-04T12:22:36;14.23;;;3.67;;
11220;SDS011;8517;53.546;10.104;2023-03-04T12:25:21;14.17;;;4.17;;
11220;SDS011;8517;53.546;10.104;2023-03-04T12:28:01;13.77;;;3.33;;
11220;SDS011;8517;53.546;10.104;2023-03-04T12:30:54;15.23;;;3.67;;
11220;SDS011;8517;53.546;10.104;2023-03-04T12:33:53;18.37;;;3.73;;
11220;SDS011;8517;53.546;10.104;2023-03-04T12:36:34;17.63;;;4.87;;
11220;SDS011;8517;53.546;10.104;2023-03-04T12:39:16;17.27;;;5.33;;
11220;SDS011;8517;53.546;10.104;2023-03-04T12:41:51;16.00;;;4.20;;
11220;SDS011;8517;53.546;10.104;2023-03-04T12:44:32;16.43;;;4.43;;
11220;SDS011;8517;53.546;10.104;2023-03-04T12:47:10;19.17;;;4.13;;
11220;SDS011;8517;53.546;10.104;2023-03-04T12:49:54;12.87;;;3.30;;
11220;SDS011;8517;53.546;10.104;2023-03-04T12:52:31;14.47;;;3.20;;
11220;SDS011;8517;53.546;10.104;2023-03-04T12:55:09;21.60;;;3.90;;
11220;SDS011;8517;53.546;10.104;2023-03-04T12:57:39;18.03;;;4.13;;
11220;SDS011;8517;53.546;10.104;2023-03-04T13:00:08;19.50;;;4.10;;
11220;SDS011;8517;53.546;10.104;2023-03-04T13:02:58;14.50;;;3.40;;
11220;SDS011;8517;53.546;10.104;2023-03-04T13:05:41;11.60;;;3.53;;
11220;SDS011;8517;53.546;10.104;2023-03-04T13:08:26;12.67;;;3.37;;
11220;SDS011;8517;53.546;10.104;2023-03-04T13:14:27;12.70;;;3.40;;
11220;SDS011;8517;53.546;10.104;2023-03-04T13:16:56;12.53;;;2.70;;
11220;SDS011;8517;53.546;10.104;2023-03-04T13:19:42;12.80;;;3.13;;
11220;SDS011;8517;53.546;10.104;2023-03-04T13:25:28;12.40;;;3.97;;
11220;SDS011;8517;53.546;10.104;2023-03-04T13:28:14;11.33;;;3.23;;
11220;SDS011;8517;53.546;10.104;2023-03-04T13:34:09;16.37;;;3.30;;
11220;SDS011;8517;53.546;10.104;2023-03-04T13:37:29;14.43;;;3.27;;
11220;SDS011;8517;53.546;10.104;2023-03-04T13:42:52;12.03;;;3.37;;
11220;SDS011;8517;53.546;10.104;2023-03-04T13:45:29;14.00;;;3.50;;
11220;SDS011;8517;53.546;10.104;2023-03-04T13:48:00;15.17;;;3.30;;
11220;SDS011;8517;53.546;10.104;2023-03-04T13:50:36;12.23;;;3.27;;
11220;SDS011;8517;53.546;10.104;2023-03-04T14:01:56;13.63;;;3.07;;
11220;SDS011;8517;53.546;10.104;2023-03-04T14:04:29;8.50;;;2.70;;
11220;SDS011;8517;53.546;10.104;2023-03-04T14:07:00;15.00;;;3.20;;
11220;SDS011;8517;53.546;10.104;2023-03-04T14:09:29;12.57;;;3.63;;
11220;SDS011;8517;53.546;10.104;2023-03-04T14:11:58;15.63;;;3.60;;
11220;SDS011;8517;53.546;10.104;2023-03-04T14:14:28;9.93;;;2.97;;
11220;SDS011;8517;53.546;10.104;2023-03-04T14:17:12;10.90;;;3.43;;
11220;SDS011;8517;53.546;10.104;2023-03-04T14:19:44;12.43;;;3.00;;
11220;SDS011;8517;53.546;10.104;2023-03-04T14:22:23;11.13;;;3.20;;
11220;SDS011;8517;53.546;10.104;2023-03-04T14:24:55;10.83;;;2.73;;
11220;SDS011;8517;53.546;10.104;2023-03-04T14:27:23;10.40;;;3.10;;
11220;SDS011;8517;53.546;10.104;2023-03-04T14:29:54;11.03;;;3.00;;
11220;SDS011;8517;53.546;10.104;2023-03-04T14:32:22;13.37;;;2.70;;
11220;SDS011;8517;53.546;10.104;2023-03-04T14:34:52;10.87;;;3.00;;
11220;SDS011;8517;53.546;10.104;2023-03-04T14:37:25;12.17;;;2.83;;
11220;SDS011;8517;53.546;10.104;2023-03-04T14:39:54;10.03;;;3.00;;
11220;SDS011;8517;53.546;10.104;2023-03-04T14:42:24;7.50;;;2.63;;
11220;SDS011;8517;53.546;10.104;2023-03-04T14:44:58;13.83;;;3.10;;
11220;SDS011;8517;53.546;10.104;2023-03-04T14:47:31;13.60;;;3.07;;
11220;SDS011;8517;53.546;10.104;2023-03-04T14:50:03;13.87;;;3.37;;
11220;SDS011;8517;53.546;10.104;2023-03-04T14:52:35;9.80;;;2.50;;
11220;SDS011;8517;53.546;10.104;2023-03-04T14:55:16;27.03;;;15.40;;
11220;SDS011;8517;53.546;10.104;2023-03-04T14:57:48;14.40;;;4.40;;
11220;SDS011;8517;53.546;10.104;2023-03-04T15:00:29;9.00;;;3.17;;
11220;SDS011;8517;53.546;10.104;2023-03-04T15:02:59;10.93;;;2.97;;
11220;SDS011;8517;53.546;10.104;2023-03-04T15:05:28;11.50;;;3.40;;
11220;SDS011;8517;53.546;10.104;2023-03-04T15:07:57;12.83;;;3.07;;
11220;SDS011;8517;53.546;10.104;2023-03-04T15:10:27;11.47;;;2.77;;
11220;SDS011;8517;53.546;10.104;2023-03-04T15:12:58;14.03;;;3.43;;
11220;SDS011;8517;53.546;10.104;2023-03-04T15:18:22;10.17;;;3.07;;
11220;SDS011;8517;53.546;10.104;2023-03-04T15:20:52;7.93;;;2.47;;
11220;SDS011;8517;53.546;10.104;2023-03-04T15:23:23;9.83;;;2.80;;
11220;SDS011;8517;53.546;10.104;2023-03-04T15:25:51;9.97;;;2.80;;
11220;SDS011;8517;53.546;10.104;2023-03-04T15:28:19;8.93;;;2.40;;
11220;SDS011;8517;53.546;10.104;2023-03-04T15:30:48;12.07;;;3.00;;
11220;SDS011;8517;53.546;10.104;2023-03-04T15:33:15;11.30;;;3.10;;
11220;SDS011;8517;53.546;10.104;2023-03-04T15:35:45;12.13;;;2.83;;